createdAt,value
2023-05-19T04:39:52.347Z,100437.86
2023-05-19T04:42:33.182Z,100436.41
2023-05-19T04:45:00.753Z,100439.30
2023-05-19T04:47:30.219Z,100438.85
2023-05-19T04:49:57.716Z,100433.27
2023-05-19T04:52:24.886Z,100436.15
2023-05-19T04:54:51.968Z,100434.45
2023-05-19T04:57:19.045Z,100434.55
2023-05-19T04:59:46.461Z,100428.95
2023-05-19T05:02:13.746Z,100428.14
2023-05-19T05:04:43.706Z,100430.14
2023-05-19T05:07:10.909Z,100429.46
2023-05-19T05:09:37.997Z,100429.34
2023-05-19T05:12:07.818Z,100432.92
2023-05-19T05:14:35.620Z,100433.04
2023-05-19T05:17:03.627Z,100432.17
2023-05-19T05:19:32.460Z,100432.51
2023-05-19T05:22:00.540Z,100430.95
2023-05-19T05:24:29.112Z,100432.77
2023-05-19T05:26:59.326Z,100434.92
2023-05-19T05:29:32.613Z,100434.09
2023-05-19T05:32:12.727Z,100434.30
2023-05-19T05:35:23.835Z,100437.22
2023-05-19T05:38:59.445Z,100436.50
2023-05-19T05:46:15.209Z,100436.20
2023-05-19T05:49:56.974Z,100433.06
2023-05-19T05:53:20.658Z,100432.37
2023-05-19T05:56:24.667Z,100427.88
2023-05-19T05:58:53.925Z,100429.40
2023-05-19T06:01:22.132Z,100428.06
2023-05-19T06:03:52.373Z,100427.63
2023-05-19T06:06:23.858Z,100428.45
2023-05-19T06:08:51.899Z,100431.60
2023-05-19T06:11:19.790Z,100436.60
2023-05-19T06:13:48.429Z,100438.22
2023-05-19T06:16:23.196Z,100437.48
2023-05-19T06:19:06.473Z,100439.48
2023-05-19T06:21:34.855Z,100437.43
2023-05-19T06:24:06.633Z,100439.05
2023-05-19T06:26:36.505Z,100436.98
2023-05-19T06:29:05.109Z,100433.58
2023-05-19T06:31:33.958Z,100434.77
2023-05-19T06:34:16.449Z,100434.57
2023-05-19T06:36:47.197Z,100435.41
2023-05-19T06:39:17.976Z,100435.55
2023-05-19T06:41:50.436Z,100438.86
2023-05-19T06:44:37.508Z,100435.64
2023-05-19T06:47:12.007Z,100433.92
2023-05-19T06:49:39.609Z,100438.41
2023-05-19T06:52:06.846Z,100433.98
2023-05-19T06:54:33.854Z,100430.27
2023-05-19T06:57:01.455Z,100431.16
2023-05-19T06:59:28.676Z,100435.58
2023-05-19T07:01:57.079Z,100435.07
2023-05-19T07:04:26.384Z,100430.90
2023-05-19T07:06:57.618Z,100428.50
2023-05-19T07:09:45.866Z,100429.29
2023-05-19T07:12:50.752Z,100429.80
2023-05-19T07:15:30.285Z,100425.15
2023-05-19T07:17:58.801Z,100428.34
2023-05-19T07:20:26.143Z,100426.54
2023-05-19T07:22:57.071Z,100425.08
2023-05-19T07:25:26.303Z,100428.44
2023-05-19T07:27:53.681Z,100425.41
2023-05-19T07:30:23.859Z,100429.91
2023-05-19T07:32:52.392Z,100427.75
2023-05-19T07:35:20.368Z,100425.41
2023-05-19T07:37:50.217Z,100424.25
2023-05-19T07:40:18.415Z,100420.06
2023-05-19T07:42:45.512Z,100426.02
2023-05-19T07:45:12.777Z,100420.70
2023-05-19T07:47:39.914Z,100424.73
2023-05-19T07:50:09.678Z,100422.98
2023-05-19T07:52:36.787Z,100422.40
2023-05-19T07:55:03.967Z,100428.90
2023-05-19T07:57:32.757Z,100427.96
2023-05-19T08:00:00.088Z,100424.48
2023-05-19T08:02:27.437Z,100415.43
2023-05-19T08:04:56.909Z,100409.66
2023-05-19T08:07:29.265Z,100416.69
2023-05-19T08:09:57.896Z,100418.49
2023-05-19T08:12:24.992Z,100416.20
2023-05-19T08:14:52.519Z,100421.23
2023-05-19T08:17:19.499Z,100422.25
2023-05-19T08:19:53.517Z,100420.34
2023-05-19T08:22:20.885Z,100416.48
2023-05-19T08:24:49.830Z,100422.18
2023-05-19T08:27:23.173Z,100416.99
2023-05-19T08:29:57.709Z,100418.61
2023-05-19T08:32:24.814Z,100419.02
2023-05-19T08:34:51.861Z,100415.84
2023-05-19T08:37:19.578Z,100413.52
2023-05-19T08:40:00.192Z,100412.62
2023-05-19T08:42:31.763Z,100415.53
2023-05-19T08:45:00.927Z,100409.23
2023-05-19T08:47:28.748Z,100402.55
2023-05-19T08:50:00.918Z,100401.61
2023-05-19T08:52:55.422Z,100401.38
2023-05-19T08:56:12.186Z,100393.73
2023-05-19T08:58:44.506Z,100393.56
2023-05-19T09:01:14.230Z,100394.84
2023-05-19T09:03:50.621Z,100387.14
2023-05-19T09:06:29.370Z,100392.56
2023-05-19T09:09:55.472Z,100399.77
2023-05-19T09:13:05.477Z,100393.92
2023-05-19T09:15:32.906Z,100386.23
2023-05-19T09:18:10.598Z,100389.52
2023-05-19T09:20:41.846Z,100387.76
2023-05-19T09:23:14.094Z,100381.39
2023-05-19T09:25:51.204Z,100388.63
2023-05-19T09:28:25.528Z,100388.98
2023-05-19T09:31:01.453Z,100393.42
2023-05-19T09:33:33.384Z,100389.68
2023-05-19T09:36:01.950Z,100393.59
2023-05-19T09:38:29.745Z,100387.27
2023-05-19T09:40:57.563Z,100382.94
2023-05-19T09:43:24.658Z,100382.30
2023-05-19T09:46:04.334Z,100379.50
2023-05-19T09:48:31.454Z,100381.55
2023-05-19T09:50:59.033Z,100386.65
2023-05-19T09:53:26.390Z,100384.79
2023-05-19T09:55:57.771Z,100383.97
2023-05-19T09:58:25.205Z,100385.09
2023-05-19T10:00:54.657Z,100385.58
2023-05-19T10:03:25.069Z,100382.88
2023-05-19T10:05:56.058Z,100387.22
2023-05-19T10:08:26.678Z,100383.92
2023-05-19T10:10:53.771Z,100379.59
2023-05-19T10:13:20.983Z,100381.38
2023-05-19T10:15:58.032Z,100384.77
2023-05-19T10:18:26.866Z,100388.24
2023-05-19T10:20:54.006Z,100386.92
2023-05-19T10:23:23.451Z,100384.03
2023-05-19T10:25:52.195Z,100384.85
2023-05-19T10:28:21.347Z,100383.23
2023-05-19T10:30:49.831Z,100381.91
2023-05-19T10:33:18.150Z,100381.95
2023-05-19T10:36:21.604Z,100378.89
2023-05-19T10:38:56.888Z,100378.86
2023-05-19T10:41:27.848Z,100375.05
2023-05-19T10:44:01.115Z,100374.32
2023-05-19T10:46:30.952Z,100380.45
2023-05-19T10:48:58.067Z,100376.34
2023-05-19T10:51:32.006Z,100373.29
2023-05-19T10:54:03.430Z,100373.94
2023-05-19T10:56:34.057Z,100370.98
2023-05-19T10:59:01.499Z,100368.25
2023-05-19T11:01:35.793Z,100371.86
2023-05-19T11:04:07.535Z,100363.86
2023-05-19T11:06:38.191Z,100363.14
2023-05-19T11:09:15.787Z,100358.08
2023-05-19T11:11:54.018Z,100355.95
2023-05-19T11:14:23.197Z,100357.01
2023-05-19T11:16:51.743Z,100358.52
2023-05-19T11:19:20.183Z,100362.13
2023-05-19T11:21:52.412Z,100362.45
2023-05-19T11:24:40.226Z,100361.81
2023-05-19T11:27:28.894Z,100354.61
2023-05-19T11:29:56.500Z,100351.06
2023-05-19T11:32:27.919Z,100353.39
2023-05-19T11:34:55.829Z,100351.91
2023-05-19T11:37:22.844Z,100351.30
2023-05-19T11:39:49.807Z,100346.07
2023-05-19T11:42:16.790Z,100344.22
2023-05-19T11:44:46.377Z,100342.77
2023-05-19T11:47:16.968Z,100341.77
2023-05-19T11:49:54.965Z,100342.09
2023-05-19T11:52:23.183Z,100341.00
2023-05-19T11:54:50.321Z,100342.98
2023-05-19T11:57:17.370Z,100340.13
2023-05-19T11:59:46.156Z,100336.83
2023-05-19T12:02:14.044Z,100335.11
2023-05-19T12:04:41.382Z,100329.00
2023-05-19T12:07:08.497Z,100326.41
2023-05-19T12:09:35.828Z,100328.27
2023-05-19T12:12:03.052Z,100327.61
